METAR AND TAF INFORMATION
METAR FOR LTCG
ADDS - METARS form results

(1843 UTC 02 February 2023)
Data provider http://aviationweather.gov/metar/data/
 
METAR text: LTCG 021820Z 19007KT 9999 BKN100 07/00 Q1019 NOSIG RMK RWY29 21004KT
Conditions at: LTCG (TRABZON , TR) observed 1820 UTC 02 February 2023
Temperature: 7.0°C (45°F)
Dewpoint: 0.0°C (32°F) [RH = 61%]
Pressure (altimeter): 30.09 inches Hg (1019.0 mb)
Winds: from the S (190 degrees) at 8 MPH (7 knots; 3.6 m/s)
Visibility: 6 or more miles (10+ km)
Ceiling: 10000 feet AGL
Clouds: broken clouds at 10000 feet AGL
Weather: no significant weather observed at this time

METAR text: LTCG 021750Z 20007KT 9999 BKN100 07/00 Q1019 NOSIG RMK RWY29 19004KT
Conditions at: LTCG (TRABZON , TR) observed 1750 UTC 02 February 2023
Temperature: 7.0°C (45°F)
Dewpoint: 0.0°C (32°F) [RH = 61%]
Pressure (altimeter): 30.09 inches Hg (1019.0 mb)
Winds: from the SSW (200 degrees) at 8 MPH (7 knots; 3.6 m/s)
Visibility: 6 or more miles (10+ km)
Ceiling: 10000 feet AGL
Clouds: broken clouds at 10000 feet AGL
Weather: no significant weather observed at this time

Forecast for: LTCG (TRABZON , TR)
Text: TAF LTCG 021640Z 0218/0318 21009KT 9999 SCT035 BKN100
Forecast period: 1800 UTC 02 February 2023 to 1800 UTC 03 February 2023
Forecast type: FROM: standard forecast or significant change
Winds: from the SSW (210 degrees) at 10 MPH (9 knots; 4.6 m/s)
Visibility: 6 or more miles (10+ km)
Ceiling: 10000 feet AGL
Clouds: scattered clouds at 3500 feet AGL
broken clouds at 10000 feet AGL
Weather: no significant weather forecast for this period

 AIRPORT MAP

 RUNWAY INFORMATION
Runway 11 Runway length 8661 ft Runway width 148 ft
Runway elevation 104 ft Runway displaced threshold 0 ft Runway heading 112
Runway 29 Runway length 8661 ft Runway width 148 ft
Runway elevation 95 ft Runway displaced threshold 0 ft Runway heading 292

 AIRPORT FREQUENCIES
Type APP Name APP Frequency 120.1 MHZ
Type GND Name GND Frequency 121.9 MHZ
Type TWR Name TWR Frequency 120.1 MHZ

 AIRPORT NEAR NAVIGATION AIDS
Type NDB Name Trabzon Frequency 392 KHZ
Type VOR-DME Name Trabzon Frequency 114900 KHZ
Type NDB Name Trabzon Frequency 371 KHZ



Powered by Virtual Airlines Manager [v2.6.2]



This site has no connection with the actual Aegean Airlines®.
The site was designed exclusively for use in conjunction with Microsoft Flight Simulator™, Prepar3D™ and X-plane™.
Any References to Microsoft, Aegean, Airbus, Boeing, etc. are legally owned by the manufacturers and their owners.
Our views and activities are quite different from those of the real Aegean Airlines®. Everything is virtual. Resources and information cannot be used on real flights but only for virtual ones.

Everything was created for entertainment only